Terminal Aerodrome Forecast
Issued by NWS Cleveland, OH

Home | Current Version | Previous Version | Graphics & Text | Print | Product List | Glossary On
Versions: 1 2 3 4 5 6 7 8 9 10 11 12 13 14 15 16 17
000
FTUS41 KCLE 210529
TAFCAK
TAF
KCAK 210529Z 2106/2206 VRB03KT 2SM BR OVC015
      TEMPO 2107/2111 3/4SM BR OVC003
     FM211200 35005KT 4SM BR OVC012
     FM211400 33008KT P6SM OVC015
     FM211800 31010KT P6SM SCT035
     FM220300 33010KT P6SM BKN035=

USA.gov is the U.S. government's official web portal to all federal, state and local government web resources and services.